createdAt,value
2017-11-23T00:02:02.554Z,39.67
2017-11-23T00:04:30.376Z,37.23
2017-11-23T00:06:58.176Z,38.17
2017-11-23T00:09:25.963Z,40.27
2017-11-23T00:11:53.700Z,41.87
2017-11-23T00:14:21.501Z,42.50
2017-11-23T00:16:49.294Z,41.73
2017-11-23T00:19:17.062Z,46.30
2017-11-23T00:21:44.895Z,46.37
2017-11-23T00:24:12.652Z,45.20
2017-11-23T00:26:40.383Z,44.93
2017-11-23T00:29:08.116Z,46.80
2017-11-23T00:31:35.892Z,46.30
2017-11-23T00:34:03.643Z,49.00
2017-11-23T00:36:31.536Z,52.60
2017-11-23T00:39:00.109Z,55.87
2017-11-23T00:41:27.901Z,54.90
2017-11-23T00:43:55.794Z,58.63
2017-11-23T00:46:23.534Z,66.00
2017-11-23T00:48:52.110Z,66.90
2017-11-23T00:51:19.897Z,67.43
2017-11-23T00:53:47.632Z,67.27
2017-11-23T00:56:15.380Z,68.13
2017-11-23T00:58:43.221Z,76.47
2017-11-23T01:01:11.056Z,71.67
2017-11-23T01:03:40.568Z,71.40
2017-11-23T01:06:08.391Z,70.30
2017-11-23T01:08:36.211Z,69.73
2017-11-23T01:11:04.766Z,68.17
2017-11-23T01:13:32.517Z,69.47
2017-11-23T01:16:00.307Z,68.17
2017-11-23T01:18:28.054Z,68.07
2017-11-23T01:20:55.827Z,69.70
2017-11-23T01:23:23.585Z,64.40
2017-11-23T01:25:51.386Z,65.27
2017-11-23T01:28:19.192Z,62.40
2017-11-23T01:30:46.924Z,65.23
2017-11-23T01:33:14.828Z,58.90
2017-11-23T01:35:42.592Z,55.90
2017-11-23T01:38:10.336Z,56.93
2017-11-23T01:40:38.269Z,58.37
2017-11-23T01:43:06.133Z,57.53
2017-11-23T01:45:33.967Z,55.47
2017-11-23T01:48:01.893Z,56.27
2017-11-23T01:50:29.689Z,54.97
2017-11-23T01:52:57.413Z,54.83
2017-11-23T01:55:25.388Z,54.87
2017-11-23T01:57:53.179Z,56.90
2017-11-23T02:00:21.005Z,55.13
2017-11-23T02:02:48.874Z,58.17
2017-11-23T02:05:16.656Z,55.97
2017-11-23T02:07:44.486Z,55.70
2017-11-23T02:10:12.309Z,56.87
2017-11-23T02:12:40.859Z,62.30
2017-11-23T02:15:08.660Z,66.73
2017-11-23T02:17:37.231Z,68.07
2017-11-23T02:20:05.015Z,67.33
2017-11-23T02:22:32.871Z,66.67
2017-11-23T02:25:00.696Z,71.60
2017-11-23T02:27:28.522Z,68.43
2017-11-23T02:29:56.393Z,69.57
2017-11-23T02:32:24.277Z,67.67
2017-11-23T02:34:52.179Z,71.47
2017-11-23T02:37:20.095Z,64.27
2017-11-23T02:39:48.712Z,64.07
2017-11-23T02:42:16.527Z,64.47
2017-11-23T02:44:46.280Z,65.13
2017-11-23T02:47:14.307Z,66.03
2017-11-23T02:49:42.179Z,64.80
2017-11-23T02:52:10.032Z,66.17
2017-11-23T02:54:37.915Z,66.93
2017-11-23T02:57:05.685Z,67.77
2017-11-23T02:59:33.534Z,70.03
2017-11-23T03:02:01.338Z,70.10
2017-11-23T03:04:29.076Z,69.60
2017-11-23T03:06:56.915Z,66.60
2017-11-23T03:09:24.658Z,71.00
2017-11-23T03:11:52.578Z,70.40
2017-11-23T03:14:20.331Z,73.70
2017-11-23T03:16:48.144Z,72.90
2017-11-23T03:19:15.884Z,66.20
2017-11-23T03:21:43.721Z,69.80
2017-11-23T03:24:11.479Z,70.10
2017-11-23T03:26:39.305Z,67.33
2017-11-23T03:29:07.041Z,63.27
2017-11-23T03:31:34.800Z,64.07
2017-11-23T03:34:02.672Z,63.67
2017-11-23T03:36:30.408Z,56.67
2017-11-23T03:38:58.240Z,54.20
2017-11-23T03:41:26.109Z,55.73
2017-11-23T03:43:53.960Z,58.63
2017-11-23T03:46:21.843Z,62.60
2017-11-23T03:48:49.596Z,61.60
2017-11-23T03:51:17.331Z,65.37
2017-11-23T03:53:45.135Z,63.40
2017-11-23T03:56:12.969Z,63.40
2017-11-23T03:58:40.721Z,68.03
2017-11-23T04:01:08.518Z,66.67
2017-11-23T04:03:36.382Z,69.60
2017-11-23T04:06:04.222Z,66.47
2017-11-23T04:08:31.963Z,65.50
2017-11-23T04:10:59.745Z,65.27
2017-11-23T04:13:27.575Z,63.30
2017-11-23T04:15:55.372Z,67.57
2017-11-23T04:18:23.326Z,64.77
2017-11-23T04:20:51.121Z,60.80
2017-11-23T04:23:18.872Z,64.63
2017-11-23T04:25:46.734Z,62.63
2017-11-23T04:28:15.323Z,63.63
2017-11-23T04:30:43.173Z,62.33
2017-11-23T04:33:10.953Z,63.50
2017-11-23T04:35:39.512Z,61.67
2017-11-23T04:38:07.348Z,63.57
2017-11-23T04:40:35.131Z,60.50
2017-11-23T04:43:03.016Z,64.40
2017-11-23T04:45:30.929Z,61.00
2017-11-23T04:47:58.997Z,61.30
2017-11-23T04:50:26.764Z,61.90
2017-11-23T04:52:54.588Z,60.43
2017-11-23T04:55:22.333Z,61.43
2017-11-23T04:57:50.089Z,59.90
2017-11-23T05:00:17.898Z,61.50
2017-11-23T05:02:45.659Z,62.57
2017-11-23T05:05:13.489Z,59.30
2017-11-23T05:07:41.397Z,63.10
2017-11-23T05:10:09.228Z,62.80
2017-11-23T05:12:37.017Z,59.67
2017-11-23T05:15:04.859Z,59.57
2017-11-23T05:17:32.611Z,58.47
2017-11-23T05:20:01.253Z,60.67
2017-11-23T05:22:29.055Z,59.50
2017-11-23T05:24:57.596Z,56.80
2017-11-23T05:27:26.176Z,60.93
2017-11-23T05:29:53.944Z,60.33
2017-11-23T05:32:21.720Z,60.50
2017-11-23T05:34:49.611Z,60.20
2017-11-23T05:37:17.411Z,62.27
2017-11-23T05:39:45.234Z,59.50
2017-11-23T05:42:13.030Z,58.53
2017-11-23T05:44:41.621Z,58.70
2017-11-23T05:47:09.419Z,57.10
2017-11-23T05:49:37.281Z,59.43
2017-11-23T05:52:05.045Z,60.70
2017-11-23T05:54:32.812Z,60.57
2017-11-23T05:59:45.558Z,56.07
2017-11-23T06:12:49.552Z,60.60
2017-11-23T06:15:17.466Z,58.70
2017-11-23T06:17:46.329Z,60.07
2017-11-23T06:20:14.339Z,56.73
2017-11-23T06:22:43.322Z,58.30
2017-11-23T06:25:11.309Z,54.67
2017-11-23T06:27:39.339Z,54.60
2017-11-23T06:30:07.233Z,54.93
2017-11-23T06:32:35.231Z,51.93
2017-11-23T06:35:03.092Z,50.40
2017-11-23T06:37:31.653Z,49.60
2017-11-23T06:39:59.463Z,49.10
2017-11-23T06:42:27.279Z,51.93
2017-11-23T06:45:26.061Z,51.40
2017-11-23T06:47:53.952Z,50.67
2017-11-23T06:50:22.586Z,53.60
2017-11-23T06:52:50.700Z,56.90
2017-11-23T06:55:18.728Z,51.20
2017-11-23T06:57:46.685Z,56.50
2017-11-23T07:00:19.240Z,53.30
2017-11-23T07:02:47.401Z,52.90
2017-11-23T07:05:16.252Z,54.20
2017-11-23T07:07:44.221Z,63.73
2017-11-23T07:10:12.134Z,57.87
2017-11-23T07:12:40.070Z,58.70
2017-11-23T07:15:08.060Z,69.10
2017-11-23T07:17:41.553Z,66.93
2017-11-23T07:20:09.400Z,77.07
2017-11-23T07:22:37.282Z,71.57
2017-11-23T07:25:05.153Z,75.50
2017-11-23T07:27:33.058Z,83.03
2017-11-23T07:30:00.983Z,85.97
2017-11-23T07:32:28.894Z,84.23
2017-11-23T07:34:56.838Z,88.47
2017-11-23T07:37:24.745Z,88.20
2017-11-23T07:39:52.656Z,90.83
2017-11-23T07:42:20.513Z,83.53
2017-11-23T07:44:48.465Z,91.50
2017-11-23T07:47:16.747Z,95.73
2017-11-23T07:49:44.685Z,90.60
2017-11-23T07:52:12.543Z,96.57
2017-11-23T07:54:40.443Z,91.90
2017-11-23T07:57:08.271Z,94.23
2017-11-23T07:59:36.102Z,102.13
2017-11-23T08:02:04.029Z,104.20
2017-11-23T08:04:32.796Z,94.20
2017-11-23T08:07:06.679Z,94.17
2017-11-23T08:09:40.883Z,92.20
2017-11-23T08:15:06.067Z,96.13
2017-11-23T08:17:34.317Z,93.17
2017-11-23T08:20:02.212Z,92.93
2017-11-23T08:22:30.106Z,90.73
2017-11-23T08:24:57.906Z,90.57
2017-11-23T08:27:26.519Z,88.37
2017-11-23T08:29:55.139Z,90.70
2017-11-23T08:32:22.899Z,89.90
2017-11-23T08:34:50.738Z,94.13
2017-11-23T08:37:18.552Z,88.03
2017-11-23T08:39:46.361Z,87.83
2017-11-23T08:42:14.096Z,92.20
2017-11-23T08:44:41.956Z,92.70
2017-11-23T08:47:09.814Z,90.33
2017-11-23T08:49:37.648Z,91.83
2017-11-23T08:52:06.618Z,89.63
2017-11-23T08:54:39.988Z,94.03
2017-11-23T08:57:07.761Z,96.27
2017-11-23T08:59:35.583Z,94.70
2017-11-23T09:02:06.249Z,100.97
2017-11-23T09:04:34.180Z,93.83
2017-11-23T09:07:01.966Z,96.00
2017-11-23T09:09:29.719Z,90.90
2017-11-23T09:11:57.523Z,93.33
2017-11-23T09:14:26.125Z,97.30
2017-11-23T09:16:53.885Z,101.60
2017-11-23T09:19:21.676Z,98.93
2017-11-23T09:21:49.489Z,98.33
2017-11-23T09:24:17.249Z,109.10
2017-11-23T09:26:45.126Z,103.77
2017-11-23T09:29:12.937Z,97.80
2017-11-23T09:31:40.792Z,123.47
2017-11-23T09:34:08.593Z,107.67
2017-11-23T09:36:36.357Z,95.17
2017-11-23T09:39:04.376Z,96.40
2017-11-23T09:41:32.243Z,100.13
2017-11-23T09:44:00.838Z,106.10
2017-11-23T09:46:28.586Z,101.30
2017-11-23T09:48:57.237Z,100.03
2017-11-23T09:51:25.860Z,100.13
2017-11-23T09:53:53.654Z,105.67
2017-11-23T09:56:21.388Z,97.63
2017-11-23T09:58:49.204Z,103.03
2017-11-23T10:01:17.798Z,103.43
2017-11-23T10:03:45.625Z,99.00
2017-11-23T10:06:13.408Z,106.67
2017-11-23T10:08:41.184Z,101.93
2017-11-23T10:11:09.156Z,105.33
2017-11-23T10:13:36.981Z,96.27
2017-11-23T10:16:04.781Z,104.80
2017-11-23T10:18:32.610Z,106.50
2017-11-23T10:21:00.529Z,102.87
2017-11-23T10:23:28.347Z,99.70
2017-11-23T10:25:56.114Z,100.77
2017-11-23T10:28:24.687Z,100.43
2017-11-23T10:30:52.526Z,105.80
2017-11-23T10:33:20.297Z,100.10
2017-11-23T10:35:48.032Z,104.27
2017-11-23T10:38:15.777Z,100.90
2017-11-23T10:40:43.611Z,100.97
2017-11-23T10:43:11.521Z,101.10
2017-11-23T10:45:39.339Z,101.03
2017-11-23T10:48:07.135Z,99.40
2017-11-23T10:50:35.754Z,100.87
2017-11-23T10:53:03.553Z,101.23
2017-11-23T10:55:31.289Z,104.57
2017-11-23T10:57:59.023Z,110.57
2017-11-23T11:00:26.835Z,100.20
2017-11-23T11:02:54.652Z,103.13
2017-11-23T11:05:22.474Z,102.63
2017-11-23T11:07:50.288Z,104.37
2017-11-23T11:10:18.015Z,104.73
2017-11-23T11:12:45.810Z,102.33
2017-11-23T11:15:13.598Z,109.37
2017-11-23T11:17:41.347Z,107.67
2017-11-23T11:20:09.892Z,104.30
2017-11-23T11:22:37.781Z,103.23
2017-11-23T11:25:05.566Z,101.07
2017-11-23T11:27:33.363Z,102.53
2017-11-23T11:30:01.123Z,104.07
2017-11-23T11:32:28.855Z,107.80
2017-11-23T11:34:56.683Z,104.60
2017-11-23T11:37:24.426Z,110.63
2017-11-23T11:39:52.163Z,107.93
2017-11-23T11:42:19.992Z,100.00
2017-11-23T11:44:47.735Z,108.37
2017-11-23T11:47:15.561Z,106.67
2017-11-23T11:49:44.085Z,104.97
2017-11-23T11:52:11.842Z,101.57
2017-11-23T11:54:39.621Z,106.43
2017-11-23T11:57:07.432Z,113.37
2017-11-23T11:59:35.235Z,103.10
2017-11-23T12:02:02.965Z,104.67
2017-11-23T12:04:30.776Z,104.67
2017-11-23T12:06:58.560Z,102.90
2017-11-23T12:09:26.376Z,104.60
2017-11-23T12:11:54.109Z,96.70
2017-11-23T12:14:27.894Z,107.90
2017-11-23T12:16:56.589Z,103.63
2017-11-23T12:19:36.238Z,100.80
2017-11-23T12:22:15.664Z,105.40
2017-11-23T12:38:09.112Z,90.97
2017-11-23T12:40:36.903Z,95.77
2017-11-23T12:43:04.662Z,100.20
2017-11-23T12:45:32.409Z,98.27
2017-11-23T12:48:00.220Z,97.33
2017-11-23T12:50:28.099Z,93.23
2017-11-23T12:52:55.910Z,94.83
2017-11-23T12:55:23.709Z,95.63
2017-11-23T12:57:52.108Z,96.17
2017-11-23T13:00:19.981Z,92.63
2017-11-23T13:02:47.759Z,93.90
2017-11-23T13:05:15.540Z,95.03
2017-11-23T13:07:43.531Z,92.90
2017-11-23T13:10:11.334Z,93.07
2017-11-23T13:12:39.148Z,99.13
2017-11-23T13:15:06.965Z,93.30
2017-11-23T13:17:34.758Z,90.87
2017-11-23T13:20:02.568Z,93.20
2017-11-23T13:22:30.363Z,92.30
2017-11-23T13:24:58.240Z,98.40
2017-11-23T13:27:26.023Z,94.23
2017-11-23T13:29:53.936Z,93.17
2017-11-23T13:32:21.674Z,95.97
2017-11-23T13:34:49.419Z,93.67
2017-11-23T13:37:17.276Z,89.23
2017-11-23T13:39:45.125Z,91.40
2017-11-23T13:42:12.983Z,93.50
2017-11-23T13:44:41.550Z,95.67
2017-11-23T13:47:09.365Z,88.80
2017-11-23T13:49:37.198Z,88.57
2017-11-23T13:52:05.846Z,90.00
2017-11-23T13:54:33.703Z,94.10
2017-11-23T13:57:01.573Z,91.80
2017-11-23T13:59:29.320Z,91.33
2017-11-23T14:01:57.296Z,90.10
2017-11-23T14:04:25.162Z,97.50
2017-11-23T14:06:53.179Z,90.60
2017-11-23T14:09:20.982Z,93.80
2017-11-23T14:11:48.737Z,91.23
2017-11-23T14:14:16.505Z,94.37
2017-11-23T14:16:44.919Z,91.77
2017-11-23T14:19:12.735Z,92.90
2017-11-23T14:21:40.604Z,88.67
2017-11-23T14:24:08.382Z,91.67
2017-11-23T14:26:36.175Z,92.37
2017-11-23T14:29:03.993Z,85.87
2017-11-23T14:31:31.760Z,94.10
2017-11-23T14:33:59.545Z,88.17
2017-11-23T14:36:27.396Z,94.60
2017-11-23T14:38:55.298Z,88.30
2017-11-23T14:41:23.940Z,91.27
2017-11-23T14:43:51.838Z,90.73
2017-11-23T14:46:19.813Z,91.07
2017-11-23T14:48:47.682Z,95.60
2017-11-23T14:51:15.735Z,91.33
2017-11-23T14:53:43.644Z,94.53
2017-11-23T14:56:11.703Z,98.77
2017-11-23T14:58:39.452Z,91.13
2017-11-23T15:01:10.550Z,88.10
2017-11-23T15:03:38.347Z,99.40
2017-11-23T15:06:06.900Z,95.57
2017-11-23T15:08:34.692Z,99.17
2017-11-23T15:11:02.510Z,94.73
2017-11-23T15:13:31.182Z,95.30
2017-11-23T15:29:52.019Z,90.30
2017-11-23T15:32:41.464Z,94.67
2017-11-23T15:35:09.390Z,91.07
2017-11-23T15:37:39.199Z,96.73
2017-11-23T15:40:22.158Z,97.43
2017-11-23T15:43:31.092Z,93.60
2017-11-23T15:59:58.344Z,95.43
2017-11-23T16:05:57.075Z,92.57
2017-11-23T16:08:24.833Z,92.93
2017-11-23T16:10:52.604Z,93.47
2017-11-23T16:13:20.481Z,94.70
2017-11-23T16:15:48.254Z,93.43
2017-11-23T16:18:16.972Z,96.70
2017-11-23T16:20:45.521Z,94.47
2017-11-23T16:23:13.323Z,98.20
2017-11-23T16:25:41.899Z,93.50
2017-11-23T16:28:09.732Z,94.40
2017-11-23T16:30:37.522Z,93.97
2017-11-23T16:33:05.333Z,93.13
2017-11-23T16:35:33.193Z,94.10
2017-11-23T16:38:00.988Z,93.23
2017-11-23T16:40:33.602Z,94.23
2017-11-23T16:49:18.587Z,91.00
2017-11-23T16:52:02.965Z,96.80
2017-11-23T17:01:26.465Z,94.63
2017-11-23T17:04:13.973Z,97.90
2017-11-23T17:48:38.252Z,91.73
2017-11-23T17:51:07.908Z,98.10
2017-11-23T17:53:35.714Z,99.67
2017-11-23T17:59:18.171Z,90.87
2017-11-23T18:54:44.096Z,87.60
2017-11-23T18:57:12.555Z,93.60
2017-11-23T19:03:00.814Z,89.67
2017-11-23T19:06:15.222Z,89.50
2017-11-23T19:08:43.194Z,87.50
2017-11-23T19:11:11.054Z,87.67
2017-11-23T19:13:38.897Z,85.17
2017-11-23T19:16:06.749Z,86.37
2017-11-23T19:18:34.642Z,90.30
2017-11-23T19:21:03.288Z,85.10
2017-11-23T19:23:31.143Z,91.73
2017-11-23T19:25:59.058Z,85.77
2017-11-23T19:28:26.963Z,86.07
2017-11-23T19:30:54.733Z,87.07
2017-11-23T19:33:22.616Z,84.97
2017-11-23T19:35:50.578Z,82.20
2017-11-23T19:38:18.393Z,82.20
2017-11-23T19:40:46.147Z,81.27
2017-11-23T19:43:13.920Z,79.53
2017-11-23T19:45:41.710Z,80.27
2017-11-23T19:48:09.450Z,78.50
2017-11-23T19:50:38.201Z,77.60
2017-11-23T19:53:05.992Z,79.87
2017-11-23T19:55:34.452Z,77.40
2017-11-23T19:58:02.830Z,79.33
2017-11-23T20:00:30.973Z,75.37
2017-11-23T20:02:59.000Z,76.50
2017-11-23T20:05:27.229Z,77.40
2017-11-23T20:07:55.227Z,72.60
2017-11-23T20:10:23.477Z,71.77
2017-11-23T20:12:51.465Z,73.43
2017-11-23T20:15:19.416Z,73.47
2017-11-23T20:17:48.068Z,73.70
2017-11-23T20:20:15.880Z,70.67
2017-11-23T20:22:44.462Z,73.90
2017-11-23T20:25:12.326Z,69.43
2017-11-23T20:27:40.899Z,68.53
2017-11-23T20:30:08.768Z,67.70
2017-11-23T20:32:36.567Z,65.30
2017-11-23T20:35:04.443Z,72.30
2017-11-23T20:37:35.137Z,71.00
2017-11-23T20:40:04.036Z,69.80
2017-11-23T20:42:31.895Z,67.10
2017-11-23T20:45:00.076Z,63.83
2017-11-23T20:47:28.550Z,67.00
2017-11-23T20:49:56.327Z,67.63
2017-11-23T20:52:24.100Z,67.90
2017-11-23T20:54:52.021Z,68.70
2017-11-23T20:57:19.919Z,69.13
2017-11-23T20:59:47.760Z,67.03
2017-11-23T21:02:16.706Z,70.20
2017-11-23T21:04:45.354Z,68.83
2017-11-23T21:07:13.295Z,68.03
2017-11-23T21:09:41.238Z,68.70
2017-11-23T21:12:09.125Z,68.00
2017-11-23T21:14:40.997Z,65.70
2017-11-23T21:17:14.215Z,69.63
2017-11-23T21:19:42.966Z,69.20
2017-11-23T21:22:12.657Z,64.33
2017-11-23T21:27:18.849Z,73.10
2017-11-23T21:32:42.487Z,67.40
2017-11-23T21:35:10.383Z,67.93
2017-11-23T21:37:38.503Z,67.70
2017-11-23T21:40:06.398Z,68.40
2017-11-23T21:42:34.217Z,68.20
2017-11-23T21:45:02.200Z,67.97
2017-11-23T21:47:30.022Z,71.00
2017-11-23T21:49:58.014Z,67.73
2017-11-23T21:52:26.265Z,72.17
2017-11-23T21:54:54.163Z,72.30
2017-11-23T21:57:22.073Z,67.63
2017-11-23T21:59:49.905Z,67.43
2017-11-23T22:02:17.726Z,67.00
2017-11-23T22:04:45.568Z,66.30
2017-11-23T22:07:13.405Z,64.60
2017-11-23T22:09:41.294Z,66.60
2017-11-23T22:12:09.190Z,66.30
2017-11-23T22:14:37.002Z,63.63
2017-11-23T22:17:04.895Z,65.17
2017-11-23T22:19:32.810Z,66.17
2017-11-23T22:22:00.702Z,63.40
2017-11-23T22:24:34.347Z,66.70
2017-11-23T22:27:02.228Z,63.00
2017-11-23T22:29:30.949Z,62.00
2017-11-23T22:31:58.781Z,62.37
2017-11-23T22:34:26.674Z,62.00
2017-11-23T22:36:54.517Z,61.17
2017-11-23T22:39:22.373Z,67.67
2017-11-23T22:41:50.235Z,64.13
2017-11-23T22:44:18.201Z,65.93
2017-11-23T22:46:46.270Z,62.97
2017-11-23T22:49:14.982Z,64.03
2017-11-23T22:51:42.820Z,64.07
2017-11-23T22:54:10.682Z,63.57
2017-11-23T22:56:38.490Z,64.93
2017-11-23T22:59:07.992Z,66.27
2017-11-23T23:01:35.825Z,64.97
2017-11-23T23:04:03.703Z,66.40
2017-11-23T23:06:31.483Z,67.40
2017-11-23T23:08:59.337Z,65.53
2017-11-23T23:11:27.202Z,67.77
2017-11-23T23:13:55.061Z,68.57
2017-11-23T23:16:22.874Z,69.60
2017-11-23T23:18:51.216Z,69.27
2017-11-23T23:21:19.107Z,69.33
2017-11-23T23:23:46.950Z,64.37
2017-11-23T23:26:14.797Z,67.50
2017-11-23T23:28:42.694Z,68.27
2017-11-23T23:31:10.520Z,68.00
2017-11-23T23:33:38.487Z,67.70
2017-11-23T23:36:07.735Z,70.37
2017-11-23T23:38:35.584Z,72.47
2017-11-23T23:41:03.428Z,71.50
2017-11-23T23:43:31.246Z,69.30
2017-11-23T23:45:59.054Z,68.73
2017-11-23T23:48:26.905Z,65.50
2017-11-23T23:50:55.474Z,69.13
2017-11-23T23:53:23.329Z,69.20
2017-11-23T23:55:51.186Z,67.87
2017-11-23T23:58:19.151Z,70.00
